Time;durP1;ratioP1;P1;durP2;ratioP2;P2;SDS_P1;SDS_P2;PMS_P1;PMS_P2;Temp;Humidity;BMP_temperature;BMP_pressure;BME280_temperature;BME280_humidity;BME280_pressure;Samples;Min_cycle;Max_cycle;Signal;HPM_P1;HPM_P2
2023/06/30 00:00:58;;;;;;;7.28;2.67;;;15.80;99.90;;;;;;5137895;27;20035;-90
2023/06/30 00:03:25;;;;;;;11.13;3.38;;;15.80;99.90;;;;;;5141363;27;20043;-90
2023/06/30 00:05:51;;;;;;;11.25;2.70;;;15.70;99.90;;;;;;5154642;27;20413;-91
2023/06/30 00:08:18;;;;;;;8.30;2.58;;;15.70;99.90;;;;;;5140006;27;20483;-90
2023/06/30 00:10:45;;;;;;;9.85;2.83;;;15.60;99.90;;;;;;5153192;27;20479;-90
2023/06/30 00:13:12;;;;;;;8.05;2.63;;;15.60;99.90;;;;;;5171449;27;20053;-91
2023/06/30 00:15:39;;;;;;;10.15;3.05;;;15.60;99.90;;;;;;5137966;27;20034;-91
2023/06/30 00:18:06;;;;;;;11.88;3.40;;;15.50;99.90;;;;;;5138743;27;20086;-90
2023/06/30 00:20:33;;;;;;;8.25;3.08;;;15.50;99.90;;;;;;5141286;27;20035;-90
2023/06/30 00:23:00;;;;;;;11.63;3.20;;;15.40;99.90;;;;;;5137405;27;20043;-91
2023/06/30 00:25:27;;;;;;;8.88;2.83;;;15.40;99.90;;;;;;5154637;27;20087;-91
2023/06/30 00:27:53;;;;;;;7.80;3.17;;;15.40;99.90;;;;;;5171725;27;20038;-90
2023/06/30 00:30:20;;;;;;;9.18;3.30;;;15.40;99.90;;;;;;5137355;27;20130;-90
2023/06/30 00:32:47;;;;;;;10.25;3.53;;;15.30;99.90;;;;;;5140567;27;20034;-90
2023/06/30 00:35:13;;;;;;;8.38;3.20;;;15.20;99.90;;;;;;5174693;27;20076;-90
2023/06/30 00:37:40;;;;;;;10.85;3.17;;;15.20;99.90;;;;;;5157821;27;20501;-90
2023/06/30 00:40:07;;;;;;;8.60;3.13;;;15.20;99.90;;;;;;5140382;27;20039;-90
2023/06/30 00:42:34;;;;;;;14.65;3.85;;;15.20;99.90;;;;;;5140304;27;20030;-90
2023/06/30 00:45:01;;;;;;;8.23;3.15;;;15.10;99.90;;;;;;5140155;27;20156;-89
2023/06/30 00:47:29;;;;;;;9.98;3.20;;;15.10;99.90;;;;;;5140604;27;20371;-90
2023/06/30 00:49:56;;;;;;;10.93;3.60;;;15.00;99.90;;;;;;5174062;27;20567;-90
2023/06/30 00:52:24;;;;;;;7.35;2.58;;;14.90;99.90;;;;;;5157392;27;20046;-91
2023/06/30 00:54:51;;;;;;;8.55;3.15;;;15.00;99.90;;;;;;5158395;27;20047;-90
2023/06/30 00:57:17;;;;;;;12.95;3.45;;;14.90;99.90;;;;;;5158313;27;20041;-90
2023/06/30 00:59:44;;;;;;;8.70;3.13;;;14.90;99.90;;;;;;5141138;27;20555;-90
2023/06/30 01:02:22;;;;;;;9.48;3.10;;;14.80;99.90;;;;;;5174537;27;20091;-90
2023/06/30 01:05:33;;;;;;;11.68;3.13;;;14.80;99.90;;;;;;5174099;27;20043;-91
2023/06/30 01:08:03;;;;;;;9.02;3.22;;;14.70;99.90;;;;;;5173340;27;20042;-90
2023/06/30 01:10:32;;;;;;;11.15;2.88;;;14.70;99.90;;;;;;5175617;27;20027;-90
2023/06/30 01:13:01;;;;;;;8.68;3.15;;;14.80;99.90;;;;;;5141442;27;20035;-90
2023/06/30 01:15:28;;;;;;;14.25;3.03;;;14.60;99.90;;;;;;5175002;27;20467;-90
2023/06/30 01:18:02;;;;;;;12.43;3.03;;;14.70;99.90;;;;;;5158176;27;20042;-89
2023/06/30 01:20:32;;;;;;;10.95;3.17;;;14.50;99.90;;;;;;5173839;27;20034;-89
2023/06/30 01:23:14;;;;;;;10.77;3.20;;;14.50;99.90;;;;;;5141053;27;20039;-90
2023/06/30 01:25:42;;;;;;;8.48;3.17;;;14.50;99.90;;;;;;5174023;27;20050;-90
2023/06/30 01:28:10;;;;;;;11.13;3.20;;;14.50;99.90;;;;;;5173554;27;20088;-90
2023/06/30 01:30:37;;;;;;;7.82;3.05;;;14.40;99.90;;;;;;5140246;27;20039;-90
2023/06/30 01:33:04;;;;;;;7.93;2.55;;;14.40;99.90;;;;;;5156753;27;20082;-91
2023/06/30 01:35:31;;;;;;;8.32;2.70;;;14.40;99.90;;;;;;5156470;27;20380;-90
2023/06/30 01:37:59;;;;;;;13.07;2.92;;;14.40;99.90;;;;;;5156984;27;20129;-90
2023/06/30 01:40:26;;;;;;;7.90;3.10;;;14.40;99.90;;;;;;5156805;27;20117;-91
2023/06/30 01:42:55;;;;;;;11.73;3.13;;;14.30;99.90;;;;;;5139385;27;20121;-90
2023/06/30 01:45:26;;;;;;;7.65;2.75;;;14.30;99.90;;;;;;5156130;27;20513;-90
2023/06/30 01:47:53;;;;;;;10.38;2.92;;;14.30;99.90;;;;;;5173893;27;20103;-90
2023/06/30 01:50:21;;;;;;;9.98;2.95;;;14.30;99.90;;;;;;5173679;27;20469;-90
2023/06/30 01:52:47;;;;;;;8.57;3.00;;;14.20;99.90;;;;;;5136185;27;20042;-91
2023/06/30 01:55:14;;;;;;;8.80;2.70;;;14.20;99.90;;;;;;5152331;27;20039;-91
2023/06/30 01:57:41;;;;;;;8.93;2.78;;;14.20;99.90;;;;;;5136051;27;20035;-90
2023/06/30 02:00:08;;;;;;;11.52;2.92;;;14.10;99.90;;;;;;5119269;27;20419;-91
2023/06/30 02:02:35;;;;;;;12.07;3.00;;;14.10;99.90;;;;;;5143208;27;20034;-90
2023/06/30 02:05:04;;;;;;;8.85;2.70;;;14.00;99.90;;;;;;5138958;27;20050;-91
2023/06/30 02:07:31;;;;;;;10.18;2.80;;;14.00;99.90;;;;;;5155660;27;20069;-91
2023/06/30 02:09:58;;;;;;;12.30;3.00;;;13.90;99.90;;;;;;5156198;27;20042;-91
2023/06/30 02:12:25;;;;;;;7.90;2.75;;;13.90;99.90;;;;;;5155518;27;20487;-90
2023/06/30 02:14:51;;;;;;;13.98;3.20;;;13.90;99.90;;;;;;5138875;27;20027;-91
2023/06/30 02:17:26;;;;;;;8.27;2.97;;;13.90;99.90;;;;;;5138738;27;20054;-90
2023/06/30 02:19:54;;;;;;;10.48;2.92;;;13.90;99.90;;;;;;5155782;27;20406;-91
2023/06/30 02:22:20;;;;;;;8.50;2.85;;;13.90;99.90;;;;;;5138809;27;20045;-90
2023/06/30 02:24:47;;;;;;;13.52;2.95;;;13.90;99.90;;;;;;5155944;27;20046;-91
2023/06/30 02:27:16;;;;;;;12.55;3.55;;;13.80;99.90;;;;;;5155550;27;20039;-88
2023/06/30 02:29:43;;;;;;;10.55;2.83;;;13.80;99.90;;;;;;5139753;27;20093;-91
2023/06/30 02:32:10;;;;;;;11.77;3.10;;;13.80;99.90;;;;;;5138641;27;20083;-91
2023/06/30 02:34:37;;;;;;;12.02;2.75;;;13.70;99.90;;;;;;5155259;27;20058;-91
2023/06/30 02:37:04;;;;;;;13.30;3.00;;;13.70;99.90;;;;;;5138620;27;20038;-91
2023/06/30 02:39:30;;;;;;;10.77;3.13;;;13.70;99.90;;;;;;5155480;27;20505;-91
2023/06/30 02:41:57;;;;;;;9.25;3.25;;;13.70;99.90;;;;;;5138874;27;20035;-89
2023/06/30 02:44:24;;;;;;;10.25;3.03;;;13.70;99.90;;;;;;5133972;27;20043;-91
2023/06/30 02:46:51;;;;;;;8.13;3.00;;;13.60;99.90;;;;;;5135061;27;20121;-91
2023/06/30 02:49:17;;;;;;;6.25;2.80;;;13.60;99.90;;;;;;5134565;27;20060;-90
2023/06/30 02:51:44;;;;;;;8.88;3.33;;;13.60;99.90;;;;;;5152243;27;20039;-91
2023/06/30 02:54:11;;;;;;;10.63;2.88;;;13.50;99.90;;;;;;5137423;27;20039;-90
2023/06/30 02:56:37;;;;;;;12.55;2.85;;;13.50;99.90;;;;;;5151372;27;20125;-89
2023/06/30 02:59:04;;;;;;;9.35;3.60;;;13.50;99.90;;;;;;5168359;27;20043;-90
2023/06/30 03:01:31;;;;;;;12.00;3.20;;;13.40;99.90;;;;;;5150994;28;20079;-91
2023/06/30 03:03:58;;;;;;;12.00;3.45;;;13.30;99.90;;;;;;5152232;27;20046;-90
2023/06/30 03:06:24;;;;;;;15.50;3.30;;;13.30;99.90;;;;;;5133881;28;20484;-91
2023/06/30 03:08:51;;;;;;;13.15;3.42;;;13.30;99.90;;;;;;5151055;28;20035;-91
2023/06/30 03:11:18;;;;;;;11.65;3.00;;;13.30;99.90;;;;;;5134152;28;20039;-90
2023/06/30 03:13:46;;;;;;;11.05;3.08;;;13.30;99.90;;;;;;5135766;27;20042;-90
2023/06/30 03:16:12;;;;;;;12.43;3.30;;;13.20;99.90;;;;;;5136592;27;20047;-91
2023/06/30 03:18:40;;;;;;;7.50;3.00;;;13.20;99.90;;;;;;5141503;27;20496;-90
2023/06/30 03:21:07;;;;;;;9.02;2.80;;;13.20;99.90;;;;;;5159020;27;20133;-91
2023/06/30 03:23:33;;;;;;;8.48;3.13;;;13.20;99.90;;;;;;5137929;27;20118;-92
2023/06/30 03:26:01;;;;;;;13.00;3.47;;;13.20;99.90;;;;;;5147541;27;20043;-91
2023/06/30 03:28:28;;;;;;;11.65;3.20;;;13.20;99.90;;;;;;5132794;27;20552;-90
2023/06/30 03:30:54;;;;;;;6.40;3.00;;;13.20;99.90;;;;;;5155320;27;20126;-91
2023/06/30 03:33:22;;;;;;;6.55;2.90;;;13.20;99.90;;;;;;5140843;27;20039;-91
2023/06/30 03:35:50;;;;;;;10.85;3.30;;;13.20;99.90;;;;;;5142290;27;20039;-91
2023/06/30 03:38:17;;;;;;;8.93;3.13;;;13.20;99.90;;;;;;5175837;27;20046;-91
2023/06/30 03:40:43;;;;;;;10.00;3.22;;;13.10;99.90;;;;;;5158096;27;20088;-90
2023/06/30 03:43:10;;;;;;;8.02;2.75;;;13.10;99.90;;;;;;5158451;27;20429;-91
2023/06/30 03:45:39;;;;;;;11.20;3.10;;;13.10;99.90;;;;;;5157516;27;20074;-90
2023/06/30 03:48:06;;;;;;;9.90;3.00;;;13.10;99.90;;;;;;5118387;28;20044;-90
2023/06/30 03:50:33;;;;;;;8.25;2.72;;;13.10;99.90;;;;;;5130713;27;20045;-90
2023/06/30 03:52:59;;;;;;;5.93;2.42;;;13.10;99.90;;;;;;5141798;27;20399;-90
2023/06/30 03:55:27;;;;;;;8.80;3.00;;;13.00;99.90;;;;;;5158276;27;20042;-89
2023/06/30 03:57:53;;;;;;;6.93;2.45;;;13.00;99.90;;;;;;5122177;28;20078;-91
2023/06/30 04:00:20;;;;;;;5.93;2.50;;;13.00;99.90;;;;;;5117454;28;20043;-91
2023/06/30 04:02:47;;;;;;;8.52;2.90;;;13.00;99.90;;;;;;5133933;28;20050;-90
2023/06/30 04:05:14;;;;;;;8.07;2.97;;;13.00;99.90;;;;;;5133979;28;20040;-91
2023/06/30 04:07:40;;;;;;;9.05;3.33;;;13.00;99.90;;;;;;5126024;28;20047;-91
2023/06/30 04:10:07;;;;;;;7.57;3.25;;;13.00;99.90;;;;;;5134387;28;20538;-90
2023/06/30 04:12:34;;;;;;;9.98;3.22;;;13.00;99.90;;;;;;5117518;28;20399;-91
2023/06/30 04:15:01;;;;;;;5.25;2.75;;;13.00;99.90;;;;;;5100790;28;20050;-90
2023/06/30 04:17:27;;;;;;;6.03;2.63;;;13.00;99.90;;;;;;5102517;28;20050;-91
2023/06/30 04:19:54;;;;;;;11.43;2.80;;;13.00;99.90;;;;;;5116903;28;20035;-91
2023/06/30 04:22:21;;;;;;;8.63;3.25;;;13.00;99.90;;;;;;5134134;28;20066;-91
2023/06/30 04:24:48;;;;;;;8.45;2.97;;;13.00;99.90;;;;;;5131897;28;20047;-90
2023/06/30 04:27:14;;;;;;;7.60;2.90;;;13.00;99.90;;;;;;5134427;27;20074;-90
2023/06/30 04:29:41;;;;;;;11.55;3.33;;;13.00;99.90;;;;;;5116456;28;20035;-91
2023/06/30 04:32:08;;;;;;;6.18;2.85;;;13.00;99.90;;;;;;5116771;28;20093;-90
2023/06/30 04:34:35;;;;;;;13.45;3.92;;;12.90;99.90;;;;;;5116158;28;20039;-90
2023/06/30 04:37:02;;;;;;;7.88;2.92;;;12.90;99.90;;;;;;5100174;28;20403;-91
2023/06/30 04:39:28;;;;;;;8.00;2.75;;;12.90;99.90;;;;;;5126982;28;20047;-90
2023/06/30 04:41:55;;;;;;;10.15;3.67;;;12.90;99.90;;;;;;5099844;28;20044;-91
2023/06/30 04:44:22;;;;;;;9.18;2.90;;;12.90;99.90;;;;;;5124538;27;20104;-90
2023/06/30 04:46:49;;;;;;;7.82;3.10;;;12.90;99.90;;;;;;5119825;27;20043;-90
2023/06/30 04:49:16;;;;;;;13.55;3.65;;;12.90;99.90;;;;;;5143289;27;20083;-90
2023/06/30 04:51:42;;;;;;;10.27;3.35;;;12.90;99.90;;;;;;5119369;27;20498;-90
2023/06/30 04:54:09;;;;;;;9.50;3.30;;;12.90;99.90;;;;;;5136289;27;20399;-90
2023/06/30 04:56:36;;;;;;;9.05;2.78;;;12.90;99.90;;;;;;5153412;27;20568;-91
2023/06/30 04:59:02;;;;;;;11.23;3.90;;;13.00;99.90;;;;;;5129998;27;20038;-91
2023/06/30 05:01:30;;;;;;;9.60;3.20;;;13.00;99.90;;;;;;5136216;27;20045;-90
2023/06/30 05:03:57;;;;;;;14.05;3.50;;;13.00;99.90;;;;;;5136282;27;20043;-90
2023/06/30 05:06:24;;;;;;;8.25;3.17;;;13.00;99.90;;;;;;5136905;27;20457;-91
2023/06/30 05:08:51;;;;;;;15.18;3.42;;;13.10;99.90;;;;;;5139545;27;20038;-90
2023/06/30 05:11:20;;;;;;;10.30;3.35;;;13.10;99.90;;;;;;5129151;27;20649;-90
2023/06/30 05:13:47;;;;;;;16.42;3.40;;;13.20;99.90;;;;;;5133430;27;20043;-90
2023/06/30 05:16:14;;;;;;;10.07;3.28;;;13.20;99.90;;;;;;5129548;27;20039;-90
2023/06/30 05:18:41;;;;;;;11.15;3.25;;;13.30;99.90;;;;;;5156129;27;20076;-90
2023/06/30 05:21:08;;;;;;;8.02;3.30;;;13.40;99.90;;;;;;5139112;27;20042;-90
2023/06/30 05:23:35;;;;;;;5.68;2.90;;;13.40;99.90;;;;;;5139855;27;20045;-91
2023/06/30 05:26:02;;;;;;;7.68;3.20;;;13.50;99.90;;;;;;5139597;27;20490;-91
2023/06/30 05:28:28;;;;;;;9.68;2.65;;;13.50;99.90;;;;;;5139464;27;20037;-90
2023/06/30 05:30:55;;;;;;;8.93;2.80;;;13.60;99.90;;;;;;5156168;27;20163;-90
2023/06/30 05:33:22;;;;;;;13.45;2.88;;;13.70;99.90;;;;;;5156840;27;20078;-90
2023/06/30 05:35:48;;;;;;;5.88;2.53;;;13.80;99.90;;;;;;5155835;27;20077;-90
2023/06/30 05:38:15;;;;;;;10.15;3.28;;;13.90;99.90;;;;;;5156627;27;20034;-90
2023/06/30 05:40:42;;;;;;;10.23;2.75;;;13.90;99.90;;;;;;5135940;27;20035;-90
2023/06/30 05:43:09;;;;;;;9.50;3.08;;;14.00;99.90;;;;;;5142570;27;20043;-90
2023/06/30 05:45:37;;;;;;;10.63;2.70;;;14.00;99.90;;;;;;5152095;27;20047;-90
2023/06/30 05:48:04;;;;;;;9.10;3.38;;;14.20;99.90;;;;;;5172757;27;20038;-90
2023/06/30 05:50:30;;;;;;;8.40;2.90;;;14.20;99.90;;;;;;5139739;27;20042;-91
2023/06/30 05:52:57;;;;;;;10.52;2.67;;;14.30;99.90;;;;;;5173917;27;20039;-91
2023/06/30 05:55:24;;;;;;;7.82;2.80;;;14.40;99.90;;;;;;5156699;27;20034;-91
2023/06/30 05:57:51;;;;;;;7.78;3.10;;;14.40;99.90;;;;;;5143847;27;20038;-90
2023/06/30 06:00:18;;;;;;;9.30;2.63;;;14.60;99.90;;;;;;5159774;27;20039;-91
2023/06/30 06:02:44;;;;;;;9.73;2.72;;;14.60;99.90;;;;;;5156203;27;20121;-90
2023/06/30 06:05:11;;;;;;;8.50;2.88;;;14.70;99.90;;;;;;5173196;27;20118;-90
2023/06/30 06:07:41;;;;;;;8.82;2.67;;;14.80;99.90;;;;;;5156470;27;20046;-90
2023/06/30 06:10:08;;;;;;;5.85;2.35;;;14.90;99.90;;;;;;5155542;27;20041;-90
2023/06/30 06:12:35;;;;;;;10.07;2.92;;;15.00;99.90;;;;;;5156284;27;20042;-91
2023/06/30 06:15:02;;;;;;;5.45;2.42;;;15.00;99.90;;;;;;5156257;27;20038;-92
2023/06/30 06:17:29;;;;;;;8.38;2.47;;;15.10;99.90;;;;;;5139347;27;20075;-91
2023/06/30 06:19:57;;;;;;;6.97;2.05;;;15.20;99.90;;;;;;5138822;27;20099;-91
2023/06/30 06:22:24;;;;;;;7.78;2.20;;;15.30;99.90;;;;;;5173200;27;20053;-91
2023/06/30 06:24:50;;;;;;;4.88;2.00;;;15.30;99.90;;;;;;5156280;27;20039;-91
2023/06/30 06:27:17;;;;;;;5.90;2.08;;;15.50;99.90;;;;;;5156275;27;20046;-91
2023/06/30 06:29:44;;;;;;;6.07;1.90;;;15.60;99.90;;;;;;5173100;27;20070;-91
2023/06/30 06:32:11;;;;;;;25.30;4.00;;;15.70;99.90;;;;;;5138962;27;20038;-91
2023/06/30 06:34:38;;;;;;;4.13;1.70;;;15.80;99.90;;;;;;5155368;27;20050;-91
2023/06/30 06:37:05;;;;;;;5.93;1.80;;;15.90;99.90;;;;;;5155508;27;20035;-90
2023/06/30 06:39:32;;;;;;;6.00;1.80;;;16.10;99.90;;;;;;5135950;27;20509;-90
2023/06/30 06:41:58;;;;;;;5.80;1.77;;;16.20;99.90;;;;;;5134402;27;20035;-91
2023/06/30 06:44:25;;;;;;;5.20;1.70;;;16.30;99.90;;;;;;5151583;27;20614;-91
2023/06/30 06:47:30;;;;;;;7.00;1.55;;;16.40;99.90;;;;;;5150789;27;20070;-88
2023/06/30 06:49:57;;;;;;;7.03;1.83;;;16.50;99.90;;;;;;5171279;27;20516;-89
2023/06/30 06:52:24;;;;;;;8.02;1.90;;;16.70;99.90;;;;;;5155372;27;20035;-89
2023/06/30 06:54:50;;;;;;;4.03;1.55;;;16.80;99.90;;;;;;5138444;27;20539;-89
2023/06/30 06:57:17;;;;;;;9.13;2.05;;;16.80;99.90;;;;;;5155049;27;20091;-89
2023/06/30 06:59:44;;;;;;;5.63;1.70;;;16.90;99.90;;;;;;5171894;27;20042;-88
2023/06/30 07:02:10;;;;;;;4.03;1.48;;;17.00;99.90;;;;;;5150979;28;20376;-91
2023/06/30 07:04:38;;;;;;;4.47;1.45;;;17.00;99.90;;;;;;5150456;28;20035;-78
2023/06/30 07:07:06;;;;;;;6.40;1.70;;;17.20;99.90;;;;;;5133010;28;20072;-85
2023/06/30 07:09:32;;;;;;;3.92;1.70;;;17.40;99.90;;;;;;5116099;28;20043;-85
2023/06/30 07:11:59;;;;;;;8.45;1.60;;;17.40;99.90;;;;;;5132910;28;20403;-86
2023/06/30 07:14:26;;;;;;;4.90;1.40;;;17.40;99.90;;;;;;5133366;28;20039;-85
2023/06/30 07:16:52;;;;;;;5.68;1.58;;;17.40;99.90;;;;;;5133083;28;20043;-85
2023/06/30 07:19:19;;;;;;;6.68;1.50;;;17.50;99.90;;;;;;5132841;28;20050;-85
2023/06/30 07:21:46;;;;;;;4.22;1.73;;;17.60;99.90;;;;;;5143855;27;20395;-84
2023/06/30 07:24:14;;;;;;;6.65;1.40;;;17.80;99.90;;;;;;5136309;27;20034;-84
2023/06/30 07:26:43;;;;;;;5.50;1.75;;;17.90;99.90;;;;;;5153641;27;20406;-85
2023/06/30 07:29:10;;;;;;;4.68;1.70;;;17.90;99.90;;;;;;5136844;27;20038;-84
2023/06/30 07:31:36;;;;;;;5.30;1.30;;;18.30;99.90;;;;;;5133024;28;20039;-85
2023/06/30 07:34:03;;;;;;;5.50;1.27;;;18.30;99.90;;;;;;5153085;27;20039;-84
2023/06/30 07:36:30;;;;;;;4.10;1.05;;;18.30;99.90;;;;;;5170881;27;20070;-84
2023/06/30 07:38:57;;;;;;;9.02;1.60;;;18.20;99.90;;;;;;5136594;27;20042;-84
2023/06/30 07:41:23;;;;;;;5.75;1.80;;;18.30;99.90;;;;;;5152842;27;20050;-84
2023/06/30 07:43:50;;;;;;;6.28;1.40;;;18.30;99.90;;;;;;5136144;27;20826;-84
2023/06/30 07:46:17;;;;;;;3.38;1.48;;;18.30;99.90;;;;;;5153180;27;20505;-84
2023/06/30 07:48:43;;;;;;;6.13;1.50;;;18.30;99.90;;;;;;5149447;28;20027;-84
2023/06/30 07:51:10;;;;;;;3.38;1.08;;;18.30;99.90;;;;;;5147830;27;20035;-85
2023/06/30 07:53:38;;;;;;;4.70;1.48;;;18.40;99.90;;;;;;5135467;27;20057;-84
2023/06/30 07:56:05;;;;;;;4.82;1.35;;;18.40;99.90;;;;;;5153461;27;20039;-84
2023/06/30 07:58:32;;;;;;;5.68;1.52;;;18.40;99.90;;;;;;5170387;27;20096;-85
2023/06/30 08:00:59;;;;;;;3.65;1.30;;;18.40;99.90;;;;;;5156875;27;20125;-85
2023/06/30 08:03:25;;;;;;;11.27;1.42;;;18.50;99.90;;;;;;5152948;27;20043;-85
2023/06/30 08:05:52;;;;;;;4.70;1.30;;;18.70;99.90;;;;;;5136386;27;20042;-85
2023/06/30 08:08:19;;;;;;;4.30;1.58;;;19.00;99.90;;;;;;5169997;27;20031;-85
2023/06/30 08:10:45;;;;;;;5.47;1.00;;;19.20;99.90;;;;;;5136258;27;20036;-85
2023/06/30 08:13:12;;;;;;;5.10;1.42;;;19.30;99.90;;;;;;5152956;27;20072;-84
2023/06/30 08:15:39;;;;;;;2.78;1.25;;;19.30;99.90;;;;;;5170274;27;20039;-84
2023/06/30 08:18:05;;;;;;;5.20;1.40;;;19.20;99.90;;;;;;5153130;27;20564;-85
2023/06/30 08:20:32;;;;;;;4.85;1.27;;;18.80;99.90;;;;;;5136527;27;20509;-85
2023/06/30 08:22:59;;;;;;;5.40;1.73;;;18.60;99.90;;;;;;5136152;27;20043;-85
2023/06/30 08:25:26;;;;;;;6.40;1.48;;;18.60;99.90;;;;;;5153281;27;20043;-85
2023/06/30 08:27:53;;;;;;;5.38;1.30;;;18.70;99.90;;;;;;5136122;27;20091;-85
2023/06/30 08:30:20;;;;;;;6.70;1.30;;;19.00;99.90;;;;;;5135620;27;20039;-85
2023/06/30 08:32:46;;;;;;;4.50;1.40;;;19.00;99.90;;;;;;5139693;27;20053;-85
2023/06/30 08:35:13;;;;;;;3.50;1.63;;;19.10;99.90;;;;;;5155960;27;20038;-85
2023/06/30 08:37:40;;;;;;;6.28;1.20;;;19.20;99.90;;;;;;5156299;27;20039;-86
2023/06/30 08:40:07;;;;;;;5.45;1.40;;;19.20;99.90;;;;;;5156449;27;20443;-85
2023/06/30 08:42:36;;;;;;;5.07;1.48;;;19.40;99.90;;;;;;5139330;27;20069;-85
2023/06/30 08:45:04;;;;;;;5.53;1.20;;;19.60;99.90;;;;;;5190246;27;20238;-85
2023/06/30 08:47:34;;;;;;;4.70;1.17;;;19.70;99.90;;;;;;5156328;27;20043;-85
2023/06/30 08:50:01;;;;;;;6.07;1.23;;;19.80;99.90;;;;;;5139549;27;20826;-85
2023/06/30 08:52:28;;;;;;;3.63;1.25;;;20.10;99.90;;;;;;5190314;27;20039;-85
2023/06/30 08:54:55;;;;;;;4.45;1.10;;;20.00;99.90;;;;;;5138570;28;20047;-85
2023/06/30 08:57:23;;;;;;;3.97;1.20;;;20.20;99.90;;;;;;5114922;28;20047;-85
2023/06/30 08:59:50;;;;;;;3.55;1.20;;;20.30;99.90;;;;;;5115030;28;20519;-84
2023/06/30 09:02:17;;;;;;;6.30;1.17;;;20.40;99.90;;;;;;5131498;28;20213;-84
2023/06/30 09:04:44;;;;;;;3.20;1.10;;;20.30;99.90;;;;;;5131290;28;20050;-84
2023/06/30 09:07:18;;;;;;;4.40;1.15;;;20.30;99.90;;;;;;5114375;28;20032;-84
2023/06/30 09:09:45;;;;;;;5.40;1.38;;;20.10;99.90;;;;;;5131297;28;20040;-84
2023/06/30 09:12:14;;;;;;;6.78;1.35;;;20.00;99.90;;;;;;5130610;28;20043;-85
2023/06/30 09:14:44;;;;;;;1.83;0.98;;;19.90;99.90;;;;;;5141619;28;20047;-84
2023/06/30 09:17:11;;;;;;;3.20;1.13;;;19.50;99.90;;;;;;5144057;28;20035;-85
2023/06/30 09:19:39;;;;;;;2.72;0.90;;;19.40;99.90;;;;;;5114208;28;20042;-83
2023/06/30 09:22:06;;;;;;;4.60;1.10;;;19.60;99.90;;;;;;5097598;28;20130;-84
2023/06/30 09:24:32;;;;;;;4.00;1.17;;;19.90;99.90;;;;;;5115863;28;20490;-85
2023/06/30 09:26:59;;;;;;;3.05;1.10;;;19.90;99.90;;;;;;5097842;28;20173;-85
2023/06/30 09:29:33;;;;;;;5.18;1.15;;;19.70;99.90;;;;;;5114060;28;20043;-84
2023/06/30 09:32:01;;;;;;;4.13;0.90;;;19.60;99.90;;;;;;5131518;28;20060;-84
2023/06/30 09:34:28;;;;;;;5.50;1.17;;;19.40;99.90;;;;;;5114102;28;20039;-84
2023/06/30 09:36:55;;;;;;;4.85;0.95;;;19.30;99.90;;;;;;5130748;28;20042;-84
2023/06/30 09:39:22;;;;;;;2.55;0.98;;;19.20;99.90;;;;;;5131027;28;20058;-84
2023/06/30 09:41:50;;;;;;;4.75;1.40;;;19.10;99.90;;;;;;5130895;28;20074;-85
2023/06/30 09:44:20;;;;;;;2.60;1.00;;;19.20;99.90;;;;;;5105300;27;20065;-85
2023/06/30 09:46:51;;;;;;;2.90;1.08;;;19.00;99.90;;;;;;5154506;27;20406;-85
2023/06/30 09:49:35;;;;;;;2.90;1.13;;;19.20;99.90;;;;;;5171640;27;20035;-85
2023/06/30 09:52:03;;;;;;;2.38;1.00;;;19.40;99.90;;;;;;5172588;27;20547;-84
2023/06/30 09:54:31;;;;;;;3.80;0.95;;;19.70;99.90;;;;;;5157208;27;20038;-84
2023/06/30 09:57:05;;;;;;;3.88;1.17;;;20.10;99.90;;;;;;5154669;27;20486;-85
2023/06/30 09:59:33;;;;;;;7.57;1.50;;;20.30;99.90;;;;;;5171748;27;20039;-84
2023/06/30 10:02:00;;;;;;;3.58;1.10;;;20.50;99.90;;;;;;5154964;27;20763;-85
2023/06/30 10:04:30;;;;;;;3.83;1.42;;;20.50;99.90;;;;;;5154513;27;20522;-84
2023/06/30 10:06:57;;;;;;;5.47;1.10;;;20.50;99.90;;;;;;5155068;27;20121;-85
2023/06/30 10:09:25;;;;;;;4.07;1.30;;;20.30;99.90;;;;;;5188419;27;20110;-84
2023/06/30 10:11:55;;;;;;;4.97;1.17;;;20.20;99.90;;;;;;5154484;27;20038;-84
2023/06/30 10:14:30;;;;;;;2.47;1.20;;;20.00;99.90;;;;;;5188417;27;20514;-84
2023/06/30 10:17:02;;;;;;;4.22;1.23;;;19.90;99.90;;;;;;5171751;27;20079;-85
2023/06/30 10:19:34;;;;;;;4.28;1.25;;;19.70;99.90;;;;;;5171279;27;20042;-84
2023/06/30 10:22:03;;;;;;;2.50;1.00;;;19.60;99.90;;;;;;5171498;27;20505;-84
2023/06/30 10:24:37;;;;;;;2.72;1.02;;;19.60;99.90;;;;;;5170972;27;20085;-82
2023/06/30 10:27:08;;;;;;;4.85;1.23;;;19.70;99.90;;;;;;5171086;27;20550;-84
2023/06/30 10:29:35;;;;;;;3.63;0.90;;;20.00;99.90;;;;;;5171040;27;20483;-84
2023/06/30 10:32:03;;;;;;;3.85;1.20;;;20.20;99.90;;;;;;5171264;27;20376;-83
2023/06/30 10:34:30;;;;;;;2.85;1.05;;;20.20;99.90;;;;;;5133526;27;20027;-83
2023/06/30 10:36:58;;;;;;;2.38;1.00;;;20.00;99.90;;;;;;5127874;27;20073;-83
2023/06/30 10:39:26;;;;;;;5.18;1.00;;;20.10;99.90;;;;;;5150079;27;20039;-84
2023/06/30 10:41:57;;;;;;;4.47;1.20;;;20.30;99.90;;;;;;5133652;27;20043;-84
2023/06/30 10:44:45;;;;;;;3.97;1.00;;;20.60;99.90;;;;;;5133178;27;20126;-83
2023/06/30 10:47:12;;;;;;;4.45;1.30;;;20.90;99.50;;;;;;5150451;27;20107;-83
2023/06/30 10:49:42;;;;;;;4.57;1.20;;;21.10;99.90;;;;;;5140546;27;20035;-83
2023/06/30 10:52:11;;;;;;;4.80;1.35;;;21.00;99.90;;;;;;5150286;27;20479;-83
2023/06/30 10:54:41;;;;;;;2.13;0.90;;;20.90;99.90;;;;;;5153265;27;20031;-83
2023/06/30 10:57:10;;;;;;;2.58;0.90;;;20.60;99.90;;;;;;5187953;27;20110;-83
2023/06/30 10:59:40;;;;;;;3.42;1.10;;;20.40;99.90;;;;;;5170252;27;20039;-83
2023/06/30 11:02:21;;;;;;;5.10;1.00;;;20.40;99.90;;;;;;5187632;27;20038;-83
2023/06/30 11:04:50;;;;;;;3.15;1.00;;;20.40;99.90;;;;;;5170234;27;20050;-83
2023/06/30 11:07:18;;;;;;;2.78;1.00;;;20.50;99.90;;;;;;5185133;27;20422;-83
2023/06/30 11:09:48;;;;;;;2.53;1.00;;;20.50;99.90;;;;;;5153495;27;20114;-83
2023/06/30 11:12:19;;;;;;;2.42;1.00;;;20.80;99.10;;;;;;5170441;27;20039;-83
2023/06/30 11:14:57;;;;;;;2.88;1.00;;;20.80;99.70;;;;;;5153006;27;20088;-83
2023/06/30 11:17:25;;;;;;;4.57;1.45;;;20.90;99.90;;;;;;5153593;27;20039;-84
2023/06/30 11:20:01;;;;;;;1.77;0.90;;;21.00;99.90;;;;;;5153061;27;20035;-84
2023/06/30 11:22:31;;;;;;;2.90;1.00;;;21.30;99.50;;;;;;5170789;27;20494;-84
2023/06/30 11:25:02;;;;;;;2.63;1.02;;;21.60;99.90;;;;;;5153566;27;20084;-84
2023/06/30 11:27:32;;;;;;;3.22;0.90;;;21.80;98.30;;;;;;5153992;27;20061;-83
2023/06/30 11:30:00;;;;;;;3.13;1.40;;;22.00;98.40;;;;;;5137243;27;20038;-83
2023/06/30 11:32:28;;;;;;;3.45;1.30;;;22.10;99.40;;;;;;5136647;27;20035;-83
2023/06/30 11:34:58;;;;;;;2.20;0.98;;;22.40;99.80;;;;;;5151556;27;20035;-83
2023/06/30 11:37:26;;;;;;;2.17;0.80;;;22.50;99.20;;;;;;5172210;27;20140;-83
2023/06/30 11:39:54;;;;;;;5.25;1.10;;;22.40;99.80;;;;;;5174208;27;20053;-83
2023/06/30 11:42:21;;;;;;;4.68;1.05;;;22.40;99.90;;;;;;5157221;27;20091;-83
2023/06/30 11:44:49;;;;;;;5.30;1.20;;;22.50;99.60;;;;;;5156534;27;20440;-83
2023/06/30 11:47:17;;;;;;;2.28;1.10;;;22.40;98.70;;;;;;5174306;27;20038;-84
2023/06/30 11:49:48;;;;;;;4.15;1.13;;;22.20;98.90;;;;;;5157396;27;20487;-84
2023/06/30 11:52:17;;;;;;;2.20;1.00;;;22.20;97.40;;;;;;5174305;27;20083;-83
2023/06/30 11:54:44;;;;;;;3.85;1.05;;;22.00;97.20;;;;;;5140251;27;20042;-83
2023/06/30 11:57:10;;;;;;;3.85;1.38;;;21.90;98.40;;;;;;5157465;27;20079;-84
2023/06/30 11:59:38;;;;;;;3.80;1.45;;;21.90;97.80;;;;;;5139892;27;20042;-84
2023/06/30 12:02:04;;;;;;;3.17;0.93;;;22.20;98.70;;;;;;5157319;27;20043;-84
2023/06/30 12:04:35;;;;;;;2.83;1.08;;;22.40;98.40;;;;;;5152874;27;20042;-84
2023/06/30 12:07:05;;;;;;;3.38;1.02;;;22.50;97.10;;;;;;5136371;27;20031;-84
2023/06/30 12:09:33;;;;;;;3.92;0.98;;;22.60;97.40;;;;;;5120115;27;20414;-84
2023/06/30 12:12:00;;;;;;;4.45;1.10;;;22.80;95.90;;;;;;5136234;27;20038;-85
2023/06/30 12:14:28;;;;;;;4.95;1.20;;;23.00;95.30;;;;;;5180264;27;20414;-84
2023/06/30 12:16:55;;;;;;;2.83;0.90;;;22.90;94.30;;;;;;5139927;27;20043;-84
2023/06/30 12:19:26;;;;;;;4.18;1.10;;;22.80;94.00;;;;;;5156765;27;20045;-84
2023/06/30 12:21:56;;;;;;;3.53;1.00;;;22.90;95.60;;;;;;5156641;27;20494;-84
2023/06/30 12:24:23;;;;;;;2.45;1.00;;;23.20;94.00;;;;;;5190907;27;20490;-84
2023/06/30 12:26:51;;;;;;;2.20;1.00;;;23.20;94.80;;;;;;5173320;27;20500;-83
2023/06/30 12:29:18;;;;;;;4.15;1.20;;;23.40;95.10;;;;;;5173547;27;20087;-84
2023/06/30 12:31:46;;;;;;;4.38;1.20;;;23.40;94.30;;;;;;5156107;27;20027;-84
2023/06/30 12:34:40;;;;;;;3.55;1.25;;;23.40;95.10;;;;;;5139760;27;20121;-84
2023/06/30 12:37:06;;;;;;;5.18;1.23;;;23.10;94.20;;;;;;5168327;27;20047;-84
2023/06/30 12:39:33;;;;;;;4.30;1.20;;;22.90;93.90;;;;;;5153417;27;20038;-84
2023/06/30 12:42:00;;;;;;;6.20;1.38;;;23.00;95.50;;;;;;5135467;27;20099;-84
2023/06/30 12:44:26;;;;;;;3.25;1.35;;;23.00;95.50;;;;;;5134900;27;20129;-84
2023/06/30 12:47:03;;;;;;;5.03;1.40;;;22.90;95.80;;;;;;5131475;27;20099;-84
2023/06/30 12:49:30;;;;;;;3.28;1.25;;;22.50;93.70;;;;;;5156302;27;20035;-84